sensor_id;sensor_type;location;lat;lon;timestamp;temperature;humidity
69189;DHT22;56302;52.322;5.926;2023-04-15T00:01:26;4.60;74.60
69189;DHT22;56302;52.322;5.926;2023-04-15T00:03:52;4.50;74.80
69189;DHT22;56302;52.322;5.926;2023-04-15T00:06:19;4.50;75.30
69189;DHT22;56302;52.322;5.926;2023-04-15T00:08:45;4.50;75.00
69189;DHT22;56302;52.322;5.926;2023-04-15T00:11:11;4.40;76.00
69189;DHT22;56302;52.322;5.926;2023-04-15T00:13:40;4.40;75.70
69189;DHT22;56302;52.322;5.926;2023-04-15T00:16:06;4.40;75.40
69189;DHT22;56302;52.322;5.926;2023-04-15T00:18:33;4.40;75.40
69189;DHT22;56302;52.322;5.926;2023-04-15T00:20:58;4.40;75.30
69189;DHT22;56302;52.322;5.926;2023-04-15T00:23:24;4.40;75.40
69189;DHT22;56302;52.322;5.926;2023-04-15T00:25:50;4.40;75.30
69189;DHT22;56302;52.322;5.926;2023-04-15T00:28:16;4.40;75.40
69189;DHT22;56302;52.322;5.926;2023-04-15T00:30:42;4.30;75.40
69189;DHT22;56302;52.322;5.926;2023-04-15T00:33:08;4.30;75.30
69189;DHT22;56302;52.322;5.926;2023-04-15T00:35:34;4.20;75.50
69189;DHT22;56302;52.322;5.926;2023-04-15T00:38:01;4.20;75.40
69189;DHT22;56302;52.322;5.926;2023-04-15T00:40:26;4.10;75.90
69189;DHT22;56302;52.322;5.926;2023-04-15T00:42:52;4.00;76.60
69189;DHT22;56302;52.322;5.926;2023-04-15T00:45:17;3.90;76.30
69189;DHT22;56302;52.322;5.926;2023-04-15T00:47:43;3.90;76.80
69189;DHT22;56302;52.322;5.926;2023-04-15T00:50:10;3.90;77.20
69189;DHT22;56302;52.322;5.926;2023-04-15T00:52:37;3.80;78.20
69189;DHT22;56302;52.322;5.926;2023-04-15T00:55:03;3.80;77.10
69189;DHT22;56302;52.322;5.926;2023-04-15T00:57:29;3.80;76.80
69189;DHT22;56302;52.322;5.926;2023-04-15T00:59:56;3.80;77.10
69189;DHT22;56302;52.322;5.926;2023-04-15T01:02:23;3.70;78.90
69189;DHT22;56302;52.322;5.926;2023-04-15T01:04:49;3.70;78.10
69189;DHT22;56302;52.322;5.926;2023-04-15T01:07:15;3.70;77.50
69189;DHT22;56302;52.322;5.926;2023-04-15T01:09:41;3.70;77.20
69189;DHT22;56302;52.322;5.926;2023-04-15T01:12:07;3.70;77.00
69189;DHT22;56302;52.322;5.926;2023-04-15T01:14:34;3.70;76.80
69189;DHT22;56302;52.322;5.926;2023-04-15T01:17:00;3.60;77.10
69189;DHT22;56302;52.322;5.926;2023-04-15T01:19:26;3.60;77.20
69189;DHT22;56302;52.322;5.926;2023-04-15T01:21:53;3.60;77.00
69189;DHT22;56302;52.322;5.926;2023-04-15T01:24:18;3.60;77.10
69189;DHT22;56302;52.322;5.926;2023-04-15T01:26:44;3.60;76.80
69189;DHT22;56302;52.322;5.926;2023-04-15T01:29:10;3.60;76.60
69189;DHT22;56302;52.322;5.926;2023-04-15T01:31:36;3.50;76.70
69189;DHT22;56302;52.322;5.926;2023-04-15T01:34:01;3.50;77.00
69189;DHT22;56302;52.322;5.926;2023-04-15T01:36:27;3.40;78.20
69189;DHT22;56302;52.322;5.926;2023-04-15T01:38:53;3.40;77.60
69189;DHT22;56302;52.322;5.926;2023-04-15T01:41:26;3.30;78.00
69189;DHT22;56302;52.322;5.926;2023-04-15T01:43:52;3.30;77.70
69189;DHT22;56302;52.322;5.926;2023-04-15T01:46:18;3.30;77.70
69189;DHT22;56302;52.322;5.926;2023-04-15T01:48:44;3.30;77.90
69189;DHT22;56302;52.322;5.926;2023-04-15T01:51:10;3.20;78.10
69189;DHT22;56302;52.322;5.926;2023-04-15T01:53:35;3.10;79.00
69189;DHT22;56302;52.322;5.926;2023-04-15T01:56:01;3.00;79.80
69189;DHT22;56302;52.322;5.926;2023-04-15T01:58:27;3.00;79.90
69189;DHT22;56302;52.322;5.926;2023-04-15T02:00:52;3.00;79.90
69189;DHT22;56302;52.322;5.926;2023-04-15T02:03:18;3.00;79.10
69189;DHT22;56302;52.322;5.926;2023-04-15T02:05:43;3.00;79.90
69189;DHT22;56302;52.322;5.926;2023-04-15T02:08:09;2.90;79.70
69189;DHT22;56302;52.322;5.926;2023-04-15T02:10:35;2.90;80.00
69189;DHT22;56302;52.322;5.926;2023-04-15T02:13:00;2.90;80.00
69189;DHT22;56302;52.322;5.926;2023-04-15T02:15:26;2.90;79.80
69189;DHT22;56302;52.322;5.926;2023-04-15T02:17:51;2.90;79.20
69189;DHT22;56302;52.322;5.926;2023-04-15T02:20:19;2.90;79.60
69189;DHT22;56302;52.322;5.926;2023-04-15T02:22:46;2.90;79.20
69189;DHT22;56302;52.322;5.926;2023-04-15T02:25:12;2.90;79.20
69189;DHT22;56302;52.322;5.926;2023-04-15T02:27:38;2.90;79.40
69189;DHT22;56302;52.322;5.926;2023-04-15T02:30:04;2.70;79.90
69189;DHT22;56302;52.322;5.926;2023-04-15T02:32:30;2.70;80.20
69189;DHT22;56302;52.322;5.926;2023-04-15T02:34:55;2.70;80.00
69189;DHT22;56302;52.322;5.926;2023-04-15T02:37:21;2.70;80.40
69189;DHT22;56302;52.322;5.926;2023-04-15T02:39:47;2.60;80.60
69189;DHT22;56302;52.322;5.926;2023-04-15T02:42:13;2.50;81.10
69189;DHT22;56302;52.322;5.926;2023-04-15T02:44:38;2.50;80.80
69189;DHT22;56302;52.322;5.926;2023-04-15T02:47:04;2.60;80.60
69189;DHT22;56302;52.322;5.926;2023-04-15T02:49:31;2.60;80.90
69189;DHT22;56302;52.322;5.926;2023-04-15T02:51:57;2.50;80.40
69189;DHT22;56302;52.322;5.926;2023-04-15T02:54:25;2.50;80.70
69189;DHT22;56302;52.322;5.926;2023-04-15T02:56:53;2.60;80.40
69189;DHT22;56302;52.322;5.926;2023-04-15T02:59:20;2.60;80.40
69189;DHT22;56302;52.322;5.926;2023-04-15T03:01:46;2.60;80.30
69189;DHT22;56302;52.322;5.926;2023-04-15T03:04:11;2.50;80.20
69189;DHT22;56302;52.322;5.926;2023-04-15T03:06:37;2.60;80.30
69189;DHT22;56302;52.322;5.926;2023-04-15T03:09:03;2.50;80.30
69189;DHT22;56302;52.322;5.926;2023-04-15T03:11:29;2.40;80.80
69189;DHT22;56302;52.322;5.926;2023-04-15T03:13:56;2.40;81.20
69189;DHT22;56302;52.322;5.926;2023-04-15T03:16:21;2.40;81.20
69189;DHT22;56302;52.322;5.926;2023-04-15T03:18:47;2.40;80.90
69189;DHT22;56302;52.322;5.926;2023-04-15T03:21:12;2.40;81.20
69189;DHT22;56302;52.322;5.926;2023-04-15T03:23:38;2.30;80.90
69189;DHT22;56302;52.322;5.926;2023-04-15T03:26:03;2.30;81.40
69189;DHT22;56302;52.322;5.926;2023-04-15T03:28:29;2.30;81.80
69189;DHT22;56302;52.322;5.926;2023-04-15T03:30:55;2.30;81.40
69189;DHT22;56302;52.322;5.926;2023-04-15T03:33:20;2.30;81.50
69189;DHT22;56302;52.322;5.926;2023-04-15T03:35:46;2.20;81.90
69189;DHT22;56302;52.322;5.926;2023-04-15T03:38:12;2.20;82.20
69189;DHT22;56302;52.322;5.926;2023-04-15T03:40:39;2.20;82.20
69189;DHT22;56302;52.322;5.926;2023-04-15T03:43:05;2.20;81.60
69189;DHT22;56302;52.322;5.926;2023-04-15T03:45:31;2.20;82.00
69189;DHT22;56302;52.322;5.926;2023-04-15T03:47:56;2.20;81.70
69189;DHT22;56302;52.322;5.926;2023-04-15T03:50:22;2.10;81.70
69189;DHT22;56302;52.322;5.926;2023-04-15T03:52:47;1.90;82.90
69189;DHT22;56302;52.322;5.926;2023-04-15T03:55:13;1.90;83.20
69189;DHT22;56302;52.322;5.926;2023-04-15T03:57:39;2.00;83.00
69189;DHT22;56302;52.322;5.926;2023-04-15T04:00:07;2.00;84.20
69189;DHT22;56302;52.322;5.926;2023-04-15T04:02:33;2.20;86.50
69189;DHT22;56302;52.322;5.926;2023-04-15T04:04:59;2.30;87.90
69189;DHT22;56302;52.322;5.926;2023-04-15T04:07:25;2.40;89.30
69189;DHT22;56302;52.322;5.926;2023-04-15T04:09:50;2.60;91.00
69189;DHT22;56302;52.322;5.926;2023-04-15T04:12:16;2.80;92.40
69189;DHT22;56302;52.322;5.926;2023-04-15T04:14:41;3.00;93.30
69189;DHT22;56302;52.322;5.926;2023-04-15T04:17:07;3.10;93.40
69189;DHT22;56302;52.322;5.926;2023-04-15T04:19:33;3.10;93.70
69189;DHT22;56302;52.322;5.926;2023-04-15T04:21:59;3.10;93.80
69189;DHT22;56302;52.322;5.926;2023-04-15T04:24:24;3.10;93.80
69189;DHT22;56302;52.322;5.926;2023-04-15T04:26:50;3.00;93.80
69189;DHT22;56302;52.322;5.926;2023-04-15T04:29:16;3.10;94.00
69189;DHT22;56302;52.322;5.926;2023-04-15T04:31:41;3.20;94.60
69189;DHT22;56302;52.322;5.926;2023-04-15T04:34:07;3.30;95.20
69189;DHT22;56302;52.322;5.926;2023-04-15T04:36:32;3.40;95.20
69189;DHT22;56302;52.322;5.926;2023-04-15T04:38:58;3.40;95.10
69189;DHT22;56302;52.322;5.926;2023-04-15T04:41:25;3.50;95.30
69189;DHT22;56302;52.322;5.926;2023-04-15T04:43:51;3.50;95.20
69189;DHT22;56302;52.322;5.926;2023-04-15T04:46:16;3.50;95.20
69189;DHT22;56302;52.322;5.926;2023-04-15T04:48:42;3.50;95.00
69189;DHT22;56302;52.322;5.926;2023-04-15T04:51:07;3.50;95.30
69189;DHT22;56302;52.322;5.926;2023-04-15T04:53:33;3.60;95.30
69189;DHT22;56302;52.322;5.926;2023-04-15T04:55:59;3.50;95.30
69189;DHT22;56302;52.322;5.926;2023-04-15T04:58:25;3.60;95.60
69189;DHT22;56302;52.322;5.926;2023-04-15T05:00:50;3.70;95.60
69189;DHT22;56302;52.322;5.926;2023-04-15T05:03:16;3.70;95.70
69189;DHT22;56302;52.322;5.926;2023-04-15T05:05:41;3.80;95.70
69189;DHT22;56302;52.322;5.926;2023-04-15T05:08:07;3.80;95.60
69189;DHT22;56302;52.322;5.926;2023-04-15T05:10:33;3.80;95.60
69189;DHT22;56302;52.322;5.926;2023-04-15T05:12:58;3.90;95.60
69189;DHT22;56302;52.322;5.926;2023-04-15T05:15:24;3.90;95.50
69189;DHT22;56302;52.322;5.926;2023-04-15T05:17:49;3.90;95.50
69189;DHT22;56302;52.322;5.926;2023-04-15T05:20:15;3.90;95.40
69189;DHT22;56302;52.322;5.926;2023-04-15T05:22:41;3.90;95.40
69189;DHT22;56302;52.322;5.926;2023-04-15T05:25:07;4.00;95.50
69189;DHT22;56302;52.322;5.926;2023-04-15T05:27:33;4.10;95.30
69189;DHT22;56302;52.322;5.926;2023-04-15T05:29:59;4.10;95.50
69189;DHT22;56302;52.322;5.926;2023-04-15T05:32:24;4.20;95.40
69189;DHT22;56302;52.322;5.926;2023-04-15T05:34:50;4.30;95.30
69189;DHT22;56302;52.322;5.926;2023-04-15T05:37:16;4.40;95.10
69189;DHT22;56302;52.322;5.926;2023-04-15T05:39:42;4.50;94.90
69189;DHT22;56302;52.322;5.926;2023-04-15T05:42:07;4.60;94.60
69189;DHT22;56302;52.322;5.926;2023-04-15T05:44:33;4.80;94.40
69189;DHT22;56302;52.322;5.926;2023-04-15T05:46:58;4.80;93.90
69189;DHT22;56302;52.322;5.926;2023-04-15T05:49:24;4.90;93.50
69189;DHT22;56302;52.322;5.926;2023-04-15T05:51:49;5.00;93.30
69189;DHT22;56302;52.322;5.926;2023-04-15T05:54:15;5.00;93.30
69189;DHT22;56302;52.322;5.926;2023-04-15T05:56:41;5.10;93.10
69189;DHT22;56302;52.322;5.926;2023-04-15T05:59:07;5.20;93.00
69189;DHT22;56302;52.322;5.926;2023-04-15T06:01:33;5.40;92.60
69189;DHT22;56302;52.322;5.926;2023-04-15T06:03:59;5.50;92.40
69189;DHT22;56302;52.322;5.926;2023-04-15T06:06:25;5.80;92.40
69189;DHT22;56302;52.322;5.926;2023-04-15T06:08:51;5.90;91.80
69189;DHT22;56302;52.322;5.926;2023-04-15T06:11:18;6.00;91.40
69189;DHT22;56302;52.322;5.926;2023-04-15T06:13:44;6.20;90.70
69189;DHT22;56302;52.322;5.926;2023-04-15T06:16:09;6.20;89.70
69189;DHT22;56302;52.322;5.926;2023-04-15T06:18:36;6.30;88.90
69189;DHT22;56302;52.322;5.926;2023-04-15T06:21:01;6.40;88.90
69189;DHT22;56302;52.322;5.926;2023-04-15T06:23:27;6.60;89.00
69189;DHT22;56302;52.322;5.926;2023-04-15T06:25:52;6.70;88.30
69189;DHT22;56302;52.322;5.926;2023-04-15T06:28:18;6.70;87.60
69189;DHT22;56302;52.322;5.926;2023-04-15T06:30:43;6.80;87.70
69189;DHT22;56302;52.322;5.926;2023-04-15T06:33:09;6.90;87.50
69189;DHT22;56302;52.322;5.926;2023-04-15T06:35:35;7.00;87.30
69189;DHT22;56302;52.322;5.926;2023-04-15T06:38:00;7.10;87.20
69189;DHT22;56302;52.322;5.926;2023-04-15T06:40:26;7.10;86.70
69189;DHT22;56302;52.322;5.926;2023-04-15T06:42:52;7.20;86.00
69189;DHT22;56302;52.322;5.926;2023-04-15T06:45:17;7.10;86.30
69189;DHT22;56302;52.322;5.926;2023-04-15T06:47:43;7.30;86.30
69189;DHT22;56302;52.322;5.926;2023-04-15T06:50:09;7.40;85.90
69189;DHT22;56302;52.322;5.926;2023-04-15T06:52:34;7.40;85.30
69189;DHT22;56302;52.322;5.926;2023-04-15T06:55:00;7.50;85.20
69189;DHT22;56302;52.322;5.926;2023-04-15T06:57:26;7.60;84.90
69189;DHT22;56302;52.322;5.926;2023-04-15T06:59:53;7.60;85.10
69189;DHT22;56302;52.322;5.926;2023-04-15T07:02:19;7.60;84.70
69189;DHT22;56302;52.322;5.926;2023-04-15T07:04:45;7.50;84.60
69189;DHT22;56302;52.322;5.926;2023-04-15T07:07:11;7.50;84.00
69189;DHT22;56302;52.322;5.926;2023-04-15T07:09:37;7.70;83.80
69189;DHT22;56302;52.322;5.926;2023-04-15T07:12:03;7.80;83.10
69189;DHT22;56302;52.322;5.926;2023-04-15T07:14:28;7.80;82.70
69189;DHT22;56302;52.322;5.926;2023-04-15T07:16:54;7.90;82.50
69189;DHT22;56302;52.322;5.926;2023-04-15T07:19:20;8.10;82.40
69189;DHT22;56302;52.322;5.926;2023-04-15T07:21:46;8.10;81.50
69189;DHT22;56302;52.322;5.926;2023-04-15T07:24:11;8.10;81.20
69189;DHT22;56302;52.322;5.926;2023-04-15T07:26:41;8.20;80.80
69189;DHT22;56302;52.322;5.926;2023-04-15T07:29:06;8.40;80.00
69189;DHT22;56302;52.322;5.926;2023-04-15T07:31:32;8.60;79.50
69189;DHT22;56302;52.322;5.926;2023-04-15T07:33:57;8.70;79.20
69189;DHT22;56302;52.322;5.926;2023-04-15T07:36:23;8.80;78.60
69189;DHT22;56302;52.322;5.926;2023-04-15T07:38:48;9.10;78.20
69189;DHT22;56302;52.322;5.926;2023-04-15T07:41:14;9.30;77.70
69189;DHT22;56302;52.322;5.926;2023-04-15T07:43:39;9.30;77.10
69189;DHT22;56302;52.322;5.926;2023-04-15T07:46:05;9.20;77.40
69189;DHT22;56302;52.322;5.926;2023-04-15T07:48:31;9.20;77.80
69189;DHT22;56302;52.322;5.926;2023-04-15T07:50:56;9.30;77.20
69189;DHT22;56302;52.322;5.926;2023-04-15T07:53:22;9.20;76.00
69189;DHT22;56302;52.322;5.926;2023-04-15T07:55:47;9.20;74.40
69189;DHT22;56302;52.322;5.926;2023-04-15T07:58:13;9.20;74.60
69189;DHT22;56302;52.322;5.926;2023-04-15T08:00:38;9.30;74.90
69189;DHT22;56302;52.322;5.926;2023-04-15T08:03:04;9.30;73.00
69189;DHT22;56302;52.322;5.926;2023-04-15T08:05:30;9.40;72.70
69189;DHT22;56302;52.322;5.926;2023-04-15T08:07:55;9.50;72.70
69189;DHT22;56302;52.322;5.926;2023-04-15T08:10:21;9.40;73.60
69189;DHT22;56302;52.322;5.926;2023-04-15T08:12:47;9.40;73.50
69189;DHT22;56302;52.322;5.926;2023-04-15T08:15:13;9.50;74.30
69189;DHT22;56302;52.322;5.926;2023-04-15T08:17:39;9.60;72.00
69189;DHT22;56302;52.322;5.926;2023-04-15T08:20:05;9.50;72.60
69189;DHT22;56302;52.322;5.926;2023-04-15T08:22:31;9.50;74.30
69189;DHT22;56302;52.322;5.926;2023-04-15T08:24:56;9.40;73.10
69189;DHT22;56302;52.322;5.926;2023-04-15T08:27:22;9.30;73.80
69189;DHT22;56302;52.322;5.926;2023-04-15T08:29:47;9.40;73.90
69189;DHT22;56302;52.322;5.926;2023-04-15T08:32:13;9.50;74.60
69189;DHT22;56302;52.322;5.926;2023-04-15T08:34:39;9.50;75.70
69189;DHT22;56302;52.322;5.926;2023-04-15T08:37:04;9.70;74.60
69189;DHT22;56302;52.322;5.926;2023-04-15T08:39:30;9.80;73.10
69189;DHT22;56302;52.322;5.926;2023-04-15T08:42:03;9.70;74.80
69189;DHT22;56302;52.322;5.926;2023-04-15T08:44:34;9.70;73.20
69189;DHT22;56302;52.322;5.926;2023-04-15T08:47:06;9.70;73.90
69189;DHT22;56302;52.322;5.926;2023-04-15T08:49:35;9.70;74.90
69189;DHT22;56302;52.322;5.926;2023-04-15T08:52:03;9.70;74.90
69189;DHT22;56302;52.322;5.926;2023-04-15T08:54:29;9.80;75.60
69189;DHT22;56302;52.322;5.926;2023-04-15T08:56:57;10.00;75.50
69189;DHT22;56302;52.322;5.926;2023-04-15T08:59:23;10.00;74.40
69189;DHT22;56302;52.322;5.926;2023-04-15T09:01:49;10.10;75.90
69189;DHT22;56302;52.322;5.926;2023-04-15T09:04:17;10.30;74.10
69189;DHT22;56302;52.322;5.926;2023-04-15T09:06:43;10.20;74.80
69189;DHT22;56302;52.322;5.926;2023-04-15T09:09:09;10.30;73.20
69189;DHT22;56302;52.322;5.926;2023-04-15T09:11:36;10.40;73.00
69189;DHT22;56302;52.322;5.926;2023-04-15T09:14:02;10.20;73.80
69189;DHT22;56302;52.322;5.926;2023-04-15T09:16:27;10.30;74.00
69189;DHT22;56302;52.322;5.926;2023-04-15T09:18:53;10.50;72.10
69189;DHT22;56302;52.322;5.926;2023-04-15T09:21:19;10.50;73.30
69189;DHT22;56302;52.322;5.926;2023-04-15T09:23:56;10.70;74.20
69189;DHT22;56302;52.322;5.926;2023-04-15T09:26:35;10.90;72.50
69189;DHT22;56302;52.322;5.926;2023-04-15T09:29:07;10.90;72.70
69189;DHT22;56302;52.322;5.926;2023-04-15T09:31:33;10.60;72.00
69189;DHT22;56302;52.322;5.926;2023-04-15T09:33:59;10.60;71.90
69189;DHT22;56302;52.322;5.926;2023-04-15T09:36:25;10.60;72.40
69189;DHT22;56302;52.322;5.926;2023-04-15T09:38:58;10.40;72.50
69189;DHT22;56302;52.322;5.926;2023-04-15T09:41:25;10.40;73.60
69189;DHT22;56302;52.322;5.926;2023-04-15T09:43:50;10.60;72.70
69189;DHT22;56302;52.322;5.926;2023-04-15T09:46:16;10.50;72.90
69189;DHT22;56302;52.322;5.926;2023-04-15T09:48:42;10.50;72.30
69189;DHT22;56302;52.322;5.926;2023-04-15T09:51:07;10.30;72.40
69189;DHT22;56302;52.322;5.926;2023-04-15T09:53:34;10.40;72.40
69189;DHT22;56302;52.322;5.926;2023-04-15T09:56:01;10.50;73.90
69189;DHT22;56302;52.322;5.926;2023-04-15T09:58:28;10.70;73.60
69189;DHT22;56302;52.322;5.926;2023-04-15T10:00:55;11.00;72.50
69189;DHT22;56302;52.322;5.926;2023-04-15T10:03:24;11.00;71.40
69189;DHT22;56302;52.322;5.926;2023-04-15T10:05:51;11.10;70.90
69189;DHT22;56302;52.322;5.926;2023-04-15T10:08:22;11.10;70.60
69189;DHT22;56302;52.322;5.926;2023-04-15T10:10:49;11.30;72.00
69189;DHT22;56302;52.322;5.926;2023-04-15T10:13:18;11.60;71.60
69189;DHT22;56302;52.322;5.926;2023-04-15T10:15:49;11.50;69.80
69189;DHT22;56302;52.322;5.926;2023-04-15T10:18:16;11.40;71.50
69189;DHT22;56302;52.322;5.926;2023-04-15T10:20:43;11.90;70.00
69189;DHT22;56302;52.322;5.926;2023-04-15T10:23:11;11.40;70.40
69189;DHT22;56302;52.322;5.926;2023-04-15T10:25:36;11.20;71.10
69189;DHT22;56302;52.322;5.926;2023-04-15T10:28:03;11.30;70.20
69189;DHT22;56302;52.322;5.926;2023-04-15T10:30:31;11.20;69.50
69189;DHT22;56302;52.322;5.926;2023-04-15T10:32:57;11.00;69.10
69189;DHT22;56302;52.322;5.926;2023-04-15T10:35:23;10.80;69.50
69189;DHT22;56302;52.322;5.926;2023-04-15T10:37:48;10.90;71.40
69189;DHT22;56302;52.322;5.926;2023-04-15T10:40:30;11.10;70.70
69189;DHT22;56302;52.322;5.926;2023-04-15T10:42:58;11.00;69.80
69189;DHT22;56302;52.322;5.926;2023-04-15T10:45:31;10.90;71.50
69189;DHT22;56302;52.322;5.926;2023-04-15T10:47:57;10.90;70.50
69189;DHT22;56302;52.322;5.926;2023-04-15T10:50:26;10.90;70.20
69189;DHT22;56302;52.322;5.926;2023-04-15T10:52:52;10.70;71.00
69189;DHT22;56302;52.322;5.926;2023-04-15T10:55:22;11.20;69.30
69189;DHT22;56302;52.322;5.926;2023-04-15T10:57:59;11.40;68.60
69189;DHT22;56302;52.322;5.926;2023-04-15T11:00:28;11.50;67.90
69189;DHT22;56302;52.322;5.926;2023-04-15T11:02:59;11.40;67.30
69189;DHT22;56302;52.322;5.926;2023-04-15T11:08:08;10.90;70.30
69189;DHT22;56302;52.322;5.926;2023-04-15T11:13:00;10.90;69.90
69189;DHT22;56302;52.322;5.926;2023-04-15T11:17:52;11.00;69.50
69189;DHT22;56302;52.322;5.926;2023-04-15T11:20:17;11.40;68.20
69189;DHT22;56302;52.322;5.926;2023-04-15T11:22:47;11.60;68.10
69189;DHT22;56302;52.322;5.926;2023-04-15T11:25:29;11.30;67.30
69189;DHT22;56302;52.322;5.926;2023-04-15T11:27:56;11.30;68.10
69189;DHT22;56302;52.322;5.926;2023-04-15T11:30:26;11.50;68.60
69189;DHT22;56302;52.322;5.926;2023-04-15T11:32:57;11.60;68.50
69189;DHT22;56302;52.322;5.926;2023-04-15T11:35:23;11.40;68.80
69189;DHT22;56302;52.322;5.926;2023-04-15T11:37:49;11.50;68.10
69189;DHT22;56302;52.322;5.926;2023-04-15T11:40:16;11.50;68.80
69189;DHT22;56302;52.322;5.926;2023-04-15T11:42:43;11.10;69.20
69189;DHT22;56302;52.322;5.926;2023-04-15T11:45:15;11.00;69.90
69189;DHT22;56302;52.322;5.926;2023-04-15T11:47:41;11.00;70.00
69189;DHT22;56302;52.322;5.926;2023-04-15T11:50:20;11.10;70.80
69189;DHT22;56302;52.322;5.926;2023-04-15T11:53:00;11.40;71.20
69189;DHT22;56302;52.322;5.926;2023-04-15T11:55:27;11.20;70.10
69189;DHT22;56302;52.322;5.926;2023-04-15T11:58:08;11.10;70.10
69189;DHT22;56302;52.322;5.926;2023-04-15T12:00:34;11.40;69.80
69189;DHT22;56302;52.322;5.926;2023-04-15T12:03:20;11.60;68.40
69189;DHT22;56302;52.322;5.926;2023-04-15T12:08:55;11.60;67.80
69189;DHT22;56302;52.322;5.926;2023-04-15T12:14:32;11.30;69.50
69189;DHT22;56302;52.322;5.926;2023-04-15T12:17:00;11.30;69.80
69189;DHT22;56302;52.322;5.926;2023-04-15T12:19:28;11.40;68.30
69189;DHT22;56302;52.322;5.926;2023-04-15T12:22:03;11.50;66.40
69189;DHT22;56302;52.322;5.926;2023-04-15T12:24:33;11.60;68.30
69189;DHT22;56302;52.322;5.926;2023-04-15T12:27:13;11.70;67.50
69189;DHT22;56302;52.322;5.926;2023-04-15T12:29:40;11.60;68.00
69189;DHT22;56302;52.322;5.926;2023-04-15T12:34:53;11.70;67.40
69189;DHT22;56302;52.322;5.926;2023-04-15T12:37:19;11.40;66.80
69189;DHT22;56302;52.322;5.926;2023-04-15T12:39:49;11.40;68.40
69189;DHT22;56302;52.322;5.926;2023-04-15T12:42:15;11.60;66.30
69189;DHT22;56302;52.322;5.926;2023-04-15T12:44:41;11.30;68.20
69189;DHT22;56302;52.322;5.926;2023-04-15T12:47:08;11.30;69.70
69189;DHT22;56302;52.322;5.926;2023-04-15T12:49:34;11.40;68.00
69189;DHT22;56302;52.322;5.926;2023-04-15T12:52:00;11.50;68.60
69189;DHT22;56302;52.322;5.926;2023-04-15T12:54:27;11.60;67.40
69189;DHT22;56302;52.322;5.926;2023-04-15T12:56:54;11.40;67.80
69189;DHT22;56302;52.322;5.926;2023-04-15T12:59:20;11.20;68.20
69189;DHT22;56302;52.322;5.926;2023-04-15T13:01:47;10.90;70.20
69189;DHT22;56302;52.322;5.926;2023-04-15T13:04:13;11.00;69.90
69189;DHT22;56302;52.322;5.926;2023-04-15T13:06:39;11.00;70.00
69189;DHT22;56302;52.322;5.926;2023-04-15T13:09:04;10.90;69.90
69189;DHT22;56302;52.322;5.926;2023-04-15T13:11:31;10.70;69.80
69189;DHT22;56302;52.322;5.926;2023-04-15T13:14:04;10.40;71.00
69189;DHT22;56302;52.322;5.926;2023-04-15T13:16:31;10.60;72.40
69189;DHT22;56302;52.322;5.926;2023-04-15T13:19:01;10.60;71.30
69189;DHT22;56302;52.322;5.926;2023-04-15T13:21:27;10.60;70.00
69189;DHT22;56302;52.322;5.926;2023-04-15T13:23:53;10.40;71.40
69189;DHT22;56302;52.322;5.926;2023-04-15T13:26:18;10.50;71.30
69189;DHT22;56302;52.322;5.926;2023-04-15T13:28:44;10.40;72.10
69189;DHT22;56302;52.322;5.926;2023-04-15T13:31:10;10.40;72.60
69189;DHT22;56302;52.322;5.926;2023-04-15T13:33:36;10.20;71.90
69189;DHT22;56302;52.322;5.926;2023-04-15T13:36:02;10.20;73.20
69189;DHT22;56302;52.322;5.926;2023-04-15T13:38:27;10.20;74.00
69189;DHT22;56302;52.322;5.926;2023-04-15T13:40:53;10.20;74.00
69189;DHT22;56302;52.322;5.926;2023-04-15T13:43:18;10.20;73.90
69189;DHT22;56302;52.322;5.926;2023-04-15T13:45:45;10.30;74.10
69189;DHT22;56302;52.322;5.926;2023-04-15T13:48:10;10.20;74.10
69189;DHT22;56302;52.322;5.926;2023-04-15T13:50:36;10.20;73.70
69189;DHT22;56302;52.322;5.926;2023-04-15T13:53:01;10.00;73.10
69189;DHT22;56302;52.322;5.926;2023-04-15T13:55:27;10.00;74.50
69189;DHT22;56302;52.322;5.926;2023-04-15T13:57:52;9.90;74.00
69189;DHT22;56302;52.322;5.926;2023-04-15T14:00:18;9.90;75.30
69189;DHT22;56302;52.322;5.926;2023-04-15T14:02:44;9.70;75.40
69189;DHT22;56302;52.322;5.926;2023-04-15T14:05:10;9.80;76.40
69189;DHT22;56302;52.322;5.926;2023-04-15T14:07:35;9.70;76.80
69189;DHT22;56302;52.322;5.926;2023-04-15T14:10:01;9.60;77.40
69189;DHT22;56302;52.322;5.926;2023-04-15T14:12:27;9.60;77.50
69189;DHT22;56302;52.322;5.926;2023-04-15T14:14:52;9.50;78.00
69189;DHT22;56302;52.322;5.926;2023-04-15T14:17:18;9.40;78.30
69189;DHT22;56302;52.322;5.926;2023-04-15T14:19:44;9.40;78.20
69189;DHT22;56302;52.322;5.926;2023-04-15T14:22:09;9.40;78.10
69189;DHT22;56302;52.322;5.926;2023-04-15T14:24:35;9.20;78.80
69189;DHT22;56302;52.322;5.926;2023-04-15T14:27:00;9.30;79.80
69189;DHT22;56302;52.322;5.926;2023-04-15T14:29:27;9.30;78.50
69189;DHT22;56302;52.322;5.926;2023-04-15T14:31:52;9.30;78.80
69189;DHT22;56302;52.322;5.926;2023-04-15T14:34:18;9.20;78.80
69189;DHT22;56302;52.322;5.926;2023-04-15T14:36:43;9.50;78.60
69189;DHT22;56302;52.322;5.926;2023-04-15T14:39:09;9.50;77.30
69189;DHT22;56302;52.322;5.926;2023-04-15T14:41:35;9.60;77.40
69189;DHT22;56302;52.322;5.926;2023-04-15T14:44:02;9.70;77.10
69189;DHT22;56302;52.322;5.926;2023-04-15T14:46:27;9.60;77.50
69189;DHT22;56302;52.322;5.926;2023-04-15T14:48:53;9.50;78.20
69189;DHT22;56302;52.322;5.926;2023-04-15T14:51:19;9.40;78.50
69189;DHT22;56302;52.322;5.926;2023-04-15T14:53:44;9.20;79.60
69189;DHT22;56302;52.322;5.926;2023-04-15T14:56:10;9.30;80.00
69189;DHT22;56302;52.322;5.926;2023-04-15T14:58:36;9.30;79.30
69189;DHT22;56302;52.322;5.926;2023-04-15T15:01:02;9.30;79.10
69189;DHT22;56302;52.322;5.926;2023-04-15T15:03:29;9.30;78.80
69189;DHT22;56302;52.322;5.926;2023-04-15T15:05:55;9.20;79.30
69189;DHT22;56302;52.322;5.926;2023-04-15T15:08:22;9.30;79.20
69189;DHT22;56302;52.322;5.926;2023-04-15T15:10:47;9.40;78.50
69189;DHT22;56302;52.322;5.926;2023-04-15T15:13:13;9.40;78.50
69189;DHT22;56302;52.322;5.926;2023-04-15T15:15:38;9.40;78.40
69189;DHT22;56302;52.322;5.926;2023-04-15T15:18:04;9.20;79.10
69189;DHT22;56302;52.322;5.926;2023-04-15T15:20:30;9.20;79.40
69189;DHT22;56302;52.322;5.926;2023-04-15T15:22:57;9.20;78.50
69189;DHT22;56302;52.322;5.926;2023-04-15T15:25:23;9.10;79.40
69189;DHT22;56302;52.322;5.926;2023-04-15T15:27:48;9.10;78.80
69189;DHT22;56302;52.322;5.926;2023-04-15T15:30:14;9.10;78.90
69189;DHT22;56302;52.322;5.926;2023-04-15T15:32:41;9.20;78.70
69189;DHT22;56302;52.322;5.926;2023-04-15T15:35:07;9.20;79.50
69189;DHT22;56302;52.322;5.926;2023-04-15T15:37:32;9.20;79.40
69189;DHT22;56302;52.322;5.926;2023-04-15T15:39:58;9.10;79.90
69189;DHT22;56302;52.322;5.926;2023-04-15T15:42:25;9.10;79.50
69189;DHT22;56302;52.322;5.926;2023-04-15T15:44:50;9.00;80.00
69189;DHT22;56302;52.322;5.926;2023-04-15T15:47:17;9.00;81.10
69189;DHT22;56302;52.322;5.926;2023-04-15T15:49:43;8.90;81.20
69189;DHT22;56302;52.322;5.926;2023-04-15T15:52:09;9.00;81.50
69189;DHT22;56302;52.322;5.926;2023-04-15T15:54:35;9.10;79.80